This is the latest recevied weather packets stored in our database for station/object DM0MR. If no packets are shown the sender has not sent any weather packets the latest 10 day(s).
| Time | Temp. | Humidity | Pressure | Rain* | Wind** | Luminosity | Snow |
|---|---|---|---|---|---|---|---|
| 1777348586 | 7.78° C | 67% | 1011.9 hPa | 0 mm | - | - | - |
| 1777346787 | 7.78° C | 68% | 1011.8 hPa | 0 mm | - | - | - |
| 1777345884 | 7.22° C | 70% | 1012 hPa | 0 mm | - | - | - |
| 1777344986 | 7.78° C | 67% | 1011.8 hPa | 0 mm | - | - | - |
| 1777344086 | 8.33° C | 66% | 1011.9 hPa | 0 mm | - | - | - |
| 1777343185 | 8.33° C | 66% | 1011.8 hPa | 0 mm | - | - | - |
| 1777342285 | 8.33° C | 65% | 1011.7 hPa | 0 mm | - | - | - |
| 1777341386 | 8.89° C | 65% | 1011.8 hPa | 0 mm | - | - | - |
| 1777340485 | 8.89° C | 65% | 1011.7 hPa | 0 mm | - | - | - |
| 1777339585 | 9.44° C | 63% | 1011.9 hPa | 0 mm | - | - | - |
| 1777338685 | 9.44° C | 61% | 1011.8 hPa | 0 mm | - | - | - |
| 1777337785 | 9.44° C | 61% | 1011.7 hPa | 0 mm | - | - | - |
| 1777336884 | 9.44° C | 63% | 1011.6 hPa | 0 mm | - | - | - |
| 1777335086 | 9.44° C | 64% | 1011.4 hPa | 0 mm | - | - | - |
| 1777334185 | 10° C | 63% | 1011.5 hPa | 0 mm | - | - | - |
| 1777332384 | 10.56° C | 61% | 1011.6 hPa | 0 mm | - | - | - |
| 1777331486 | 10.56° C | 62% | 1011.5 hPa | 0 mm | - | - | - |
| 1777330586 | 10° C | 63% | 1011.2 hPa | 0 mm | - | - | - |
| 1777329686 | 9.44° C | 68% | 1011.3 hPa | 0 mm | - | - | - |
| 1777327886 | 5.56° C | 80% | 1011.5 hPa | 0 mm | - | - | - |
| 1777326986 | 6.11° C | 78% | 1011.4 hPa | 0 mm | - | - | - |
| 1777326084 | 6.67° C | 78% | 1011.6 hPa | 0 mm | - | - | - |
| 1777325185 | 6.67° C | 80% | 1011.3 hPa | 0 mm | - | - | - |
| 1777324284 | 6.67° C | 78% | 1011.4 hPa | 0 mm | - | - | - |
| 1777323385 | 6.67° C | 76% | 1011.5 hPa | 0 mm | - | - | - |
* Rain latest hour (hover to see other rain measurements)
** Current wind speed in m/s (hover to see current wind gust speed)